createdAt,value
2023-04-16T00:03:35.886Z,67.06
2023-04-16T00:06:03.602Z,67.19
2023-04-16T00:08:30.638Z,65.65
2023-04-16T00:10:57.838Z,64.69
2023-04-16T00:13:27.114Z,65.89
2023-04-16T00:15:54.010Z,64.89
2023-04-16T00:18:21.663Z,63.36
2023-04-16T00:20:49.282Z,62.42
2023-04-16T00:23:16.452Z,62.12
2023-04-16T00:25:43.768Z,62.62
2023-04-16T00:28:11.141Z,61.85
2023-04-16T00:30:38.500Z,61.94
2023-04-16T00:33:05.593Z,61.77
2023-04-16T00:35:32.612Z,62.08
2023-04-16T00:37:59.547Z,62.92
2023-04-16T00:40:29.422Z,61.92
2023-04-16T00:42:56.455Z,62.20
2023-04-16T00:45:23.934Z,62.26
2023-04-16T00:47:50.807Z,62.22
2023-04-16T00:50:18.269Z,61.41
2023-04-16T00:52:47.485Z,60.78
2023-04-16T00:55:15.807Z,59.66
2023-04-16T00:57:42.899Z,59.61
2023-04-16T01:00:10.518Z,59.50
2023-04-16T01:02:37.827Z,60.11
2023-04-16T01:05:05.758Z,60.65
2023-04-16T01:07:32.973Z,60.63
2023-04-16T01:09:59.874Z,60.94
2023-04-16T01:12:26.832Z,60.16
2023-04-16T01:14:54.140Z,60.70
2023-04-16T01:17:20.952Z,61.80
2023-04-16T01:19:48.104Z,61.94
2023-04-16T01:22:15.028Z,63.30
2023-04-16T01:24:42.028Z,63.60
2023-04-16T01:27:10.994Z,64.56
2023-04-16T01:29:37.994Z,64.85
2023-04-16T01:32:06.194Z,65.28
2023-04-16T01:34:38.008Z,65.89
2023-04-16T01:37:05.673Z,67.14
2023-04-16T01:39:32.735Z,67.42
2023-04-16T01:41:59.791Z,67.18
2023-04-16T01:44:28.254Z,66.24
2023-04-16T01:46:55.505Z,64.06
2023-04-16T01:49:24.280Z,64.34
2023-04-16T01:51:51.779Z,64.97
2023-04-16T01:54:18.647Z,63.64
2023-04-16T01:56:45.610Z,61.75
2023-04-16T01:59:12.865Z,61.06
2023-04-16T02:01:42.841Z,59.71
2023-04-16T02:04:11.139Z,60.47
2023-04-16T02:06:38.328Z,60.37
2023-04-16T02:09:05.738Z,59.69
2023-04-16T02:11:33.019Z,59.89
2023-04-16T02:14:00.446Z,59.49
2023-04-16T02:16:27.814Z,59.89
2023-04-16T02:19:00.520Z,60.70
2023-04-16T02:21:32.857Z,62.23
2023-04-16T02:24:00.377Z,63.21
2023-04-16T02:26:30.685Z,62.72
2023-04-16T02:29:03.749Z,62.92
2023-04-16T02:31:38.691Z,63.08
2023-04-16T02:34:07.283Z,61.57
2023-04-16T02:36:34.454Z,61.91
2023-04-16T02:39:01.849Z,63.21
2023-04-16T02:41:28.910Z,64.23
2023-04-16T02:43:56.626Z,64.25
2023-04-16T02:46:24.063Z,62.79
2023-04-16T02:48:51.247Z,62.43
2023-04-16T02:51:18.304Z,64.18
2023-04-16T02:53:46.192Z,65.70
2023-04-16T02:56:14.428Z,65.12
2023-04-16T02:58:41.459Z,63.33
2023-04-16T03:01:08.436Z,61.25
2023-04-16T03:03:35.744Z,61.75
2023-04-16T03:06:02.969Z,65.21
2023-04-16T03:08:29.837Z,65.79
2023-04-16T03:10:58.104Z,64.19
2023-04-16T03:13:25.395Z,63.28
2023-04-16T03:15:52.396Z,62.98
2023-04-16T03:18:19.780Z,64.40
2023-04-16T03:20:53.224Z,66.38
2023-04-16T03:23:20.731Z,65.73
2023-04-16T03:25:48.236Z,62.63
2023-04-16T03:28:18.788Z,60.69
2023-04-16T03:30:53.224Z,61.91
2023-04-16T03:33:21.132Z,64.89
2023-04-16T03:35:58.396Z,66.31
2023-04-16T03:38:28.922Z,67.19
2023-04-16T03:40:57.883Z,66.52
2023-04-16T03:43:25.732Z,64.46
2023-04-16T03:45:52.949Z,63.74
2023-04-16T03:48:23.390Z,62.61
2023-04-16T03:50:50.932Z,60.61
2023-04-16T03:53:20.707Z,60.88
2023-04-16T03:55:52.102Z,59.58
2023-04-16T03:58:20.436Z,59.63
2023-04-16T04:00:48.173Z,59.22
2023-04-16T04:03:20.219Z,58.81
2023-04-16T04:05:50.116Z,59.08
2023-04-16T04:08:24.376Z,59.91
2023-04-16T04:10:52.201Z,60.94
2023-04-16T04:13:21.432Z,62.89
2023-04-16T04:15:49.973Z,59.38
2023-04-16T04:18:17.838Z,59.30
2023-04-16T04:20:45.456Z,59.75
2023-04-16T04:23:15.825Z,59.09
2023-04-16T04:25:46.223Z,60.40
2023-04-16T04:28:14.229Z,61.45
2023-04-16T04:30:42.214Z,61.94
2023-04-16T04:33:09.787Z,63.14
2023-04-16T04:35:38.847Z,62.87
2023-04-16T04:38:06.067Z,63.07
2023-04-16T04:40:33.903Z,65.04
2023-04-16T04:43:01.556Z,63.29
2023-04-16T04:45:31.688Z,61.34
2023-04-16T04:47:59.490Z,61.03
2023-04-16T04:50:27.124Z,62.94
2023-04-16T04:52:54.537Z,62.02
2023-04-16T04:55:23.852Z,60.48
2023-04-16T04:57:51.615Z,61.13
2023-04-16T05:00:20.053Z,63.15
2023-04-16T05:02:53.277Z,65.50
2023-04-16T05:05:21.057Z,65.45
2023-04-16T05:07:49.181Z,66.35
2023-04-16T05:10:16.526Z,65.65
2023-04-16T05:12:43.690Z,67.03
2023-04-16T05:15:11.181Z,67.23
2023-04-16T05:17:38.398Z,66.34
2023-04-16T05:20:05.692Z,67.97
2023-04-16T05:22:33.116Z,66.66
2023-04-16T05:25:00.402Z,64.66
2023-04-16T05:27:27.366Z,62.90
2023-04-16T05:29:54.973Z,62.37
2023-04-16T05:32:23.392Z,62.73
2023-04-16T05:34:51.084Z,61.16
2023-04-16T05:37:18.426Z,59.82
2023-04-16T05:39:45.977Z,61.30
2023-04-16T05:42:12.991Z,61.38
2023-04-16T05:44:40.838Z,61.47
2023-04-16T05:47:09.572Z,61.29
2023-04-16T05:49:39.912Z,59.96
2023-04-16T05:52:07.552Z,61.89
2023-04-16T05:54:34.571Z,63.47
2023-04-16T05:57:02.597Z,63.94
2023-04-16T05:59:30.966Z,62.44
2023-04-16T06:01:58.296Z,62.55
2023-04-16T06:04:26.006Z,62.37
2023-04-16T06:06:53.295Z,60.98
2023-04-16T06:09:20.100Z,60.84
2023-04-16T06:11:47.244Z,61.68
2023-04-16T06:14:14.137Z,62.71
2023-04-16T06:16:41.370Z,61.71
2023-04-16T06:19:09.081Z,62.97
2023-04-16T06:21:37.991Z,62.09
2023-04-16T06:24:05.200Z,62.26
2023-04-16T06:26:33.318Z,63.07
2023-04-16T06:29:01.841Z,61.98
2023-04-16T06:31:30.196Z,61.54
2023-04-16T06:33:57.332Z,62.70
2023-04-16T06:36:24.698Z,62.38
2023-04-16T06:38:51.876Z,60.81
2023-04-16T06:41:19.179Z,61.38
2023-04-16T06:43:46.446Z,61.30
2023-04-16T06:46:13.383Z,59.34
2023-04-16T06:48:41.260Z,59.55
2023-04-16T06:51:08.775Z,60.32
2023-04-16T06:53:37.662Z,60.55
2023-04-16T06:56:07.076Z,60.88
2023-04-16T06:58:34.570Z,58.57
2023-04-16T07:01:02.759Z,59.51
2023-04-16T07:03:30.080Z,58.90
2023-04-16T07:05:57.884Z,58.71
2023-04-16T07:08:25.205Z,56.11
2023-04-16T07:10:54.360Z,57.77
2023-04-16T07:13:22.174Z,57.06
2023-04-16T07:15:49.367Z,56.45
2023-04-16T07:18:16.892Z,55.31
2023-04-16T07:20:44.285Z,56.67
2023-04-16T07:23:11.392Z,53.80
2023-04-16T07:25:39.330Z,54.24
2023-04-16T07:28:06.734Z,54.93
2023-04-16T07:30:36.922Z,55.27
2023-04-16T07:33:04.434Z,55.35
2023-04-16T07:35:32.206Z,53.57
2023-04-16T07:37:59.420Z,53.51
2023-04-16T07:40:27.988Z,55.46
2023-04-16T07:42:55.833Z,54.92
2023-04-16T07:45:24.592Z,54.78
2023-04-16T07:47:51.759Z,55.41
2023-04-16T07:50:19.685Z,54.37
2023-04-16T07:52:47.705Z,55.46
2023-04-16T07:55:15.523Z,55.52
2023-04-16T07:57:42.662Z,56.49
2023-04-16T08:00:12.449Z,53.58
2023-04-16T08:02:44.602Z,52.80
2023-04-16T08:05:13.597Z,52.04
2023-04-16T08:07:40.981Z,48.83
2023-04-16T08:10:09.118Z,50.06
2023-04-16T08:12:36.755Z,52.44
2023-04-16T08:15:05.917Z,50.98
2023-04-16T08:17:34.673Z,51.32
2023-04-16T08:20:02.403Z,49.11
2023-04-16T08:22:30.237Z,49.31
2023-04-16T08:24:57.935Z,51.91
2023-04-16T08:27:25.097Z,50.34
2023-04-16T08:29:52.090Z,50.60
2023-04-16T08:32:19.281Z,51.17
2023-04-16T08:34:47.358Z,52.15
2023-04-16T08:37:14.674Z,52.23
2023-04-16T08:39:41.862Z,52.10
2023-04-16T08:42:29.403Z,51.03
2023-04-16T08:45:18.348Z,51.86
2023-04-16T08:47:50.712Z,50.78
2023-04-16T08:50:23.526Z,49.59
2023-04-16T08:53:01.152Z,50.44
2023-04-16T08:55:36.530Z,51.35
2023-04-16T08:58:11.244Z,50.20
2023-04-16T09:00:41.393Z,49.64
2023-04-16T09:03:10.627Z,47.38
2023-04-16T09:05:38.909Z,46.86
2023-04-16T09:08:07.147Z,47.27
2023-04-16T09:10:35.766Z,48.04
2023-04-16T09:13:03.132Z,45.95
2023-04-16T09:15:31.481Z,48.54
2023-04-16T09:17:59.724Z,47.07
2023-04-16T09:20:26.751Z,49.07
2023-04-16T09:22:53.957Z,48.24
2023-04-16T09:25:22.674Z,46.88
2023-04-16T09:27:51.403Z,47.31
2023-04-16T09:30:23.265Z,48.04
2023-04-16T09:32:52.974Z,48.04
2023-04-16T09:35:20.993Z,45.93
2023-04-16T09:37:58.825Z,43.17
2023-04-16T09:40:28.320Z,43.89
2023-04-16T09:43:00.967Z,41.97
2023-04-16T09:45:34.096Z,43.47
2023-04-16T09:48:06.166Z,43.53
2023-04-16T09:50:33.251Z,41.44
2023-04-16T09:53:03.843Z,39.58
2023-04-16T09:55:31.260Z,40.55
2023-04-16T09:58:02.316Z,40.43
2023-04-16T10:00:32.170Z,39.32
2023-04-16T10:03:32.311Z,40.80
2023-04-16T10:06:17.828Z,40.36
2023-04-16T10:08:50.414Z,37.33
2023-04-16T10:11:20.392Z,40.77
2023-04-16T10:13:47.854Z,40.28
2023-04-16T10:16:15.229Z,41.93
2023-04-16T10:18:44.498Z,38.38
2023-04-16T10:21:12.856Z,37.41
2023-04-16T10:23:41.184Z,35.44
2023-04-16T10:26:08.892Z,35.37
2023-04-16T10:28:36.638Z,35.80
2023-04-16T10:31:08.806Z,37.36
2023-04-16T10:33:39.665Z,35.12
2023-04-16T10:36:15.265Z,34.38
2023-04-16T10:38:49.670Z,35.69
2023-04-16T10:41:16.882Z,33.52
2023-04-16T10:43:46.666Z,34.43
2023-04-16T10:46:24.553Z,34.85
2023-04-16T10:48:56.194Z,37.58
2023-04-16T10:51:42.453Z,34.06
2023-04-16T10:54:11.425Z,33.84
2023-04-16T10:56:39.362Z,32.42
2023-04-16T10:59:10.337Z,32.11
2023-04-16T11:01:43.306Z,30.58
2023-04-16T11:04:20.094Z,28.46
2023-04-16T11:07:06.084Z,30.17
2023-04-16T11:10:05.191Z,33.01
2023-04-16T11:12:42.926Z,33.92
2023-04-16T11:15:22.379Z,33.66
2023-04-16T11:17:52.739Z,31.29
2023-04-16T11:20:23.504Z,32.69
2023-04-16T11:22:53.673Z,32.76
2023-04-16T11:25:39.643Z,30.32
2023-04-16T11:28:06.945Z,30.41
2023-04-16T11:30:39.339Z,29.40
2023-04-16T11:33:09.048Z,31.25
2023-04-16T11:35:37.606Z,30.57
2023-04-16T11:38:06.448Z,30.31
2023-04-16T11:40:34.443Z,29.56
2023-04-16T11:43:17.449Z,28.54
2023-04-16T11:46:07.512Z,29.15
2023-04-16T11:48:51.293Z,29.56
2023-04-16T11:51:20.136Z,27.90
2023-04-16T11:53:50.209Z,29.39
2023-04-16T11:56:28.819Z,29.12
2023-04-16T11:59:13.773Z,27.18
2023-04-16T12:01:45.821Z,29.38
2023-04-16T12:04:18.800Z,29.35
2023-04-16T12:07:05.295Z,28.79
2023-04-16T12:09:37.165Z,30.71
2023-04-16T12:12:07.322Z,34.35
2023-04-16T12:14:34.876Z,33.16
2023-04-16T12:17:19.800Z,32.84
2023-04-16T12:19:57.548Z,30.83
2023-04-16T12:22:36.974Z,32.50
2023-04-16T12:25:07.015Z,30.23
2023-04-16T12:27:52.782Z,29.23
2023-04-16T12:30:22.966Z,31.02
2023-04-16T12:32:52.778Z,29.80
2023-04-16T12:35:34.756Z,30.04
2023-04-16T12:38:03.757Z,32.94
2023-04-16T12:40:36.508Z,32.21
2023-04-16T12:43:13.381Z,33.50
2023-04-16T12:45:41.259Z,33.51
2023-04-16T12:48:08.792Z,35.53
2023-04-16T12:50:36.681Z,34.94
2023-04-16T12:53:04.480Z,36.07
2023-04-16T12:55:31.732Z,35.20
2023-04-16T12:57:59.483Z,34.05
2023-04-16T13:00:27.286Z,32.74
2023-04-16T13:02:55.175Z,33.85
2023-04-16T13:05:22.938Z,32.07
2023-04-16T13:07:50.434Z,30.63
2023-04-16T13:10:17.836Z,32.12
2023-04-16T13:12:46.731Z,31.44
2023-04-16T13:15:13.948Z,29.08
2023-04-16T13:17:41.162Z,30.81
2023-04-16T13:20:09.558Z,32.23
2023-04-16T13:22:39.739Z,31.70
2023-04-16T13:25:07.824Z,30.90
2023-04-16T13:27:35.219Z,30.95
2023-04-16T13:30:02.232Z,28.77
2023-04-16T13:32:29.515Z,31.68
2023-04-16T13:34:56.709Z,34.05
2023-04-16T13:37:24.444Z,32.53
2023-04-16T13:39:51.359Z,32.34
2023-04-16T13:42:18.513Z,33.03
2023-04-16T13:44:49.134Z,33.53
2023-04-16T13:47:17.248Z,33.16
2023-04-16T13:49:45.982Z,31.13
2023-04-16T13:52:13.276Z,32.43
2023-04-16T13:54:41.720Z,30.05
2023-04-16T13:57:19.889Z,31.74
2023-04-16T13:59:47.672Z,31.40
2023-04-16T14:02:19.158Z,30.99
2023-04-16T14:04:47.351Z,30.64
2023-04-16T14:07:15.517Z,30.00
2023-04-16T14:09:46.288Z,29.03
2023-04-16T14:12:13.321Z,32.54
2023-04-16T14:14:41.958Z,32.42
2023-04-16T14:17:09.161Z,30.14
2023-04-16T14:19:36.585Z,29.91
2023-04-16T14:22:03.970Z,28.98
2023-04-16T14:24:31.128Z,27.24
2023-04-16T14:26:59.165Z,30.03
2023-04-16T14:29:26.868Z,28.31
2023-04-16T14:31:55.092Z,27.51
2023-04-16T14:34:22.935Z,26.87
2023-04-16T14:36:52.803Z,26.56
2023-04-16T14:39:21.760Z,27.55
2023-04-16T14:41:48.774Z,26.48
2023-04-16T14:44:15.994Z,26.35
2023-04-16T14:46:46.858Z,27.31
2023-04-16T14:49:14.639Z,27.44
2023-04-16T14:51:42.639Z,27.90
2023-04-16T14:54:09.836Z,27.73
2023-04-16T14:56:36.749Z,27.16
2023-04-16T14:59:04.827Z,27.90
2023-04-16T15:01:33.692Z,29.16
2023-04-16T15:04:03.147Z,29.13
2023-04-16T15:06:30.551Z,30.68
2023-04-16T15:09:00.553Z,30.69
2023-04-16T15:11:28.775Z,30.26
2023-04-16T15:13:56.323Z,31.12
2023-04-16T15:16:24.163Z,31.92
2023-04-16T15:18:51.650Z,32.75
2023-04-16T15:21:19.069Z,32.42
2023-04-16T15:23:46.067Z,32.83
2023-04-16T15:26:13.157Z,34.49
2023-04-16T15:28:40.795Z,33.07
2023-04-16T15:31:09.002Z,33.10
2023-04-16T15:33:36.251Z,33.64
2023-04-16T15:36:04.260Z,33.72
2023-04-16T15:38:31.821Z,33.44
2023-04-16T15:41:00.842Z,33.67
2023-04-16T15:43:29.805Z,33.55
2023-04-16T15:45:57.543Z,33.48
2023-04-16T15:48:25.348Z,33.67
2023-04-16T15:50:53.433Z,33.36
2023-04-16T15:53:21.808Z,33.19
2023-04-16T15:55:52.696Z,32.66
2023-04-16T15:58:21.075Z,33.68
2023-04-16T16:00:50.340Z,33.13
2023-04-16T16:03:18.634Z,33.06
2023-04-16T16:05:48.231Z,32.59
2023-04-16T16:08:15.964Z,33.26
2023-04-16T16:10:43.370Z,31.74
2023-04-16T16:13:13.296Z,31.52
2023-04-16T16:15:44.171Z,30.94
2023-04-16T16:18:11.194Z,29.98
2023-04-16T16:20:39.071Z,30.86
2023-04-16T16:23:08.962Z,31.52
2023-04-16T16:25:38.576Z,32.85
2023-04-16T16:28:06.800Z,33.10
2023-04-16T16:30:33.835Z,33.41
2023-04-16T16:33:01.614Z,33.49
2023-04-16T16:35:29.394Z,33.91
2023-04-16T16:37:57.399Z,34.58
2023-04-16T16:40:25.238Z,35.19
2023-04-16T16:42:53.315Z,36.05
2023-04-16T16:45:21.003Z,37.51
2023-04-16T16:47:48.962Z,36.30
2023-04-16T16:50:16.941Z,35.98
2023-04-16T16:52:44.846Z,36.92
2023-04-16T16:55:12.116Z,37.16
2023-04-16T16:57:39.709Z,36.75
2023-04-16T17:00:16.766Z,37.40
2023-04-16T17:02:44.403Z,38.03
2023-04-16T17:05:12.555Z,38.01
2023-04-16T17:07:40.546Z,39.28
2023-04-16T17:10:11.553Z,38.62
2023-04-16T17:12:38.829Z,38.38
2023-04-16T17:15:06.078Z,38.08
2023-04-16T17:17:33.253Z,38.33
2023-04-16T17:20:01.564Z,37.93
2023-04-16T17:22:28.637Z,37.18
2023-04-16T17:24:58.266Z,38.62
2023-04-16T17:27:26.892Z,39.04
2023-04-16T17:30:00.232Z,39.04
2023-04-16T17:32:32.526Z,39.39
2023-04-16T17:35:00.236Z,38.97
2023-04-16T17:37:27.628Z,39.73
2023-04-16T17:39:55.570Z,40.28
2023-04-16T17:42:23.137Z,39.59
2023-04-16T17:44:50.413Z,41.14
2023-04-16T17:47:17.564Z,41.48
2023-04-16T17:49:45.585Z,41.96
2023-04-16T17:52:13.040Z,41.18
2023-04-16T17:54:40.365Z,42.01
2023-04-16T17:57:07.453Z,42.92
2023-04-16T17:59:34.691Z,43.16
2023-04-16T18:02:01.961Z,43.71
2023-04-16T18:04:29.284Z,44.74
2023-04-16T18:06:56.817Z,47.53
2023-04-16T18:09:24.444Z,46.90
2023-04-16T18:11:51.272Z,47.06
2023-04-16T18:14:20.232Z,46.72
2023-04-16T18:16:48.246Z,46.36
2023-04-16T18:19:18.811Z,47.22
2023-04-16T18:21:46.702Z,47.00
2023-04-16T18:24:14.023Z,47.42
2023-04-16T18:26:41.972Z,47.24
2023-04-16T18:29:09.327Z,48.03
2023-04-16T18:31:36.710Z,47.47
2023-04-16T18:34:06.508Z,47.48
2023-04-16T18:36:34.041Z,48.20
2023-04-16T18:39:02.676Z,47.65
2023-04-16T18:41:31.329Z,47.73
2023-04-16T18:43:59.182Z,48.79
2023-04-16T18:46:27.530Z,47.97
2023-04-16T18:48:55.116Z,47.96
2023-04-16T18:51:22.005Z,48.62
2023-04-16T18:53:49.230Z,48.53
2023-04-16T18:56:16.775Z,48.50
2023-04-16T18:58:44.240Z,49.18
2023-04-16T19:01:13.544Z,49.21
2023-04-16T19:03:50.827Z,49.79
2023-04-16T19:06:17.979Z,51.77
2023-04-16T19:08:45.251Z,51.28
2023-04-16T19:11:12.353Z,51.57
2023-04-16T19:13:40.101Z,51.84
2023-04-16T19:16:11.710Z,51.06
2023-04-16T19:18:39.547Z,50.98
2023-04-16T19:21:07.288Z,51.05
2023-04-16T19:23:34.426Z,51.02
2023-04-16T19:26:01.731Z,51.69
2023-04-16T19:28:29.259Z,51.41
2023-04-16T19:30:56.662Z,52.23
2023-04-16T19:33:24.025Z,51.80
2023-04-16T19:35:51.128Z,51.67
2023-04-16T19:38:18.308Z,51.76
2023-04-16T19:40:46.854Z,51.57
2023-04-16T19:43:14.851Z,51.84
2023-04-16T19:45:46.967Z,51.83
2023-04-16T19:48:14.959Z,53.40
2023-04-16T19:50:42.937Z,52.79
2023-04-16T19:53:11.335Z,51.28
2023-04-16T19:55:42.409Z,51.92
2023-04-16T19:58:10.031Z,52.44
2023-04-16T20:00:38.778Z,51.61
2023-04-16T20:03:06.463Z,51.55
2023-04-16T20:05:34.023Z,52.32
2023-04-16T20:08:01.525Z,52.39
2023-04-16T20:10:31.966Z,51.93
2023-04-16T20:13:00.000Z,51.92
2023-04-16T20:15:27.411Z,52.35
2023-04-16T20:17:56.296Z,52.45
2023-04-16T20:20:24.002Z,53.68
2023-04-16T20:22:51.278Z,54.09
2023-04-16T20:25:21.848Z,54.28
2023-04-16T20:27:49.001Z,54.08
2023-04-16T20:30:16.561Z,53.91
2023-04-16T20:32:45.332Z,54.38
2023-04-16T20:35:13.102Z,52.94
2023-04-16T20:37:43.089Z,53.79
2023-04-16T20:40:11.046Z,54.91
2023-04-16T20:42:38.282Z,54.30
2023-04-16T20:45:09.259Z,54.78
2023-04-16T20:47:36.605Z,54.36
2023-04-16T20:50:03.821Z,54.03
2023-04-16T20:52:31.076Z,54.53
2023-04-16T20:54:58.362Z,54.38
2023-04-16T20:57:28.090Z,55.11
2023-04-16T20:59:55.333Z,56.22
2023-04-16T21:02:24.299Z,55.11
2023-04-16T21:04:52.599Z,54.43
2023-04-16T21:07:19.912Z,53.88
2023-04-16T21:09:46.859Z,55.35
2023-04-16T21:12:13.999Z,55.39
2023-04-16T21:14:41.003Z,55.61
2023-04-16T21:17:08.050Z,56.25
2023-04-16T21:19:35.097Z,57.47
2023-04-16T21:22:02.926Z,57.58
2023-04-16T21:24:31.936Z,57.73
2023-04-16T21:26:58.876Z,57.66
2023-04-16T21:29:26.295Z,57.74
2023-04-16T21:31:53.816Z,54.77
2023-04-16T21:34:20.835Z,55.36
2023-04-16T21:36:47.642Z,55.27
2023-04-16T21:39:17.496Z,55.74
2023-04-16T21:41:44.347Z,56.01
2023-04-16T21:44:11.475Z,55.44
2023-04-16T21:46:38.265Z,55.16
2023-04-16T21:49:05.955Z,54.37
2023-04-16T21:51:32.868Z,56.25
2023-04-16T21:54:00.001Z,57.67
2023-04-16T21:56:27.555Z,57.56
2023-04-16T21:58:54.595Z,55.48
2023-04-16T22:01:22.124Z,56.33
2023-04-16T22:03:52.314Z,57.61
2023-04-16T22:06:20.723Z,57.24
2023-04-16T22:08:50.036Z,57.33
2023-04-16T22:11:19.117Z,57.92
2023-04-16T22:13:47.873Z,58.19
2023-04-16T22:16:15.641Z,57.73
2023-04-16T22:18:43.898Z,59.28
2023-04-16T22:21:11.523Z,58.59
2023-04-16T22:23:38.619Z,58.28
2023-04-16T22:26:05.522Z,57.57
2023-04-16T22:28:32.670Z,57.33
2023-04-16T22:31:00.037Z,57.34
2023-04-16T22:33:29.710Z,60.06
2023-04-16T22:35:56.793Z,61.33
2023-04-16T22:38:23.856Z,61.14
2023-04-16T22:40:50.916Z,60.73
2023-04-16T22:43:20.991Z,61.45
2023-04-16T22:45:48.126Z,61.11
2023-04-16T22:48:15.786Z,59.46
2023-04-16T22:50:48.785Z,59.04
2023-04-16T22:53:16.014Z,61.12
2023-04-16T22:55:42.970Z,61.70
2023-04-16T22:58:10.007Z,60.27
2023-04-16T23:00:37.195Z,59.55
2023-04-16T23:03:04.582Z,60.31
2023-04-16T23:05:31.625Z,60.53
2023-04-16T23:07:58.562Z,58.56
2023-04-16T23:10:26.123Z,59.82
2023-04-16T23:12:52.932Z,60.08
2023-04-16T23:15:20.270Z,60.22
2023-04-16T23:17:47.299Z,61.47
2023-04-16T23:20:14.341Z,61.65
2023-04-16T23:22:41.508Z,61.71
2023-04-16T23:25:09.184Z,61.20
2023-04-16T23:27:37.332Z,60.07
2023-04-16T23:30:06.025Z,59.54
2023-04-16T23:32:34.288Z,59.83
2023-04-16T23:35:01.408Z,59.35
2023-04-16T23:37:28.591Z,60.49
2023-04-16T23:39:57.698Z,60.96
2023-04-16T23:42:25.109Z,60.40
2023-04-16T23:44:52.129Z,59.45
2023-04-16T23:47:19.462Z,59.75
2023-04-16T23:49:46.511Z,60.00
2023-04-16T23:52:13.418Z,61.96
2023-04-16T23:54:40.843Z,62.89
2023-04-16T23:57:07.786Z,62.14
2023-04-16T23:59:35.019Z,61.32
